This is the latest recevied weather packets stored in our database for station/object KF0PEC-13. If no packets are shown the sender has not sent any weather packets the latest 10 day(s).
| Time | Temp. | Humidity | Pressure | Rain* | Wind** | Luminosity | Snow |
|---|---|---|---|---|---|---|---|
| 1777213543 | 2.78° C | 89% | 1010.9 hPa | 0 mm | - | - | - |
| 1777212315 | 2.22° C | 90% | 1011.3 hPa | 0 mm | - | - | - |
| 1777211732 | 2.22° C | 90% | 1011.2 hPa | 0 mm | - | - | - |
| 1777210524 | 2.22° C | 90% | 1011 hPa | 0 mm | - | - | - |
| 1777202733 | 2.22° C | 86% | 1011.4 hPa | 0 mm | - | - | - |
| 1777202129 | 2.22° C | 86% | 1011.4 hPa | 0 mm | - | - | - |
| 1777199734 | 2.78° C | 83% | 1011.7 hPa | 0 mm | - | - | - |
| 1777199130 | 2.78° C | 82% | 1011.6 hPa | 0 mm | - | - | - |
| 1777191922 | 3.33° C | 78% | 1012.4 hPa | 0 mm | - | - | - |
| 1777190735 | 3.89° C | 77% | 1012.9 hPa | 0 mm | - | - | - |
| 1777188923 | 4.44° C | 74% | 1012.9 hPa | 0 mm | - | - | - |
| 1777187132 | 4.44° C | 72% | 1013 hPa | 0 mm | - | - | - |
| 1777185340 | 5° C | 69% | 1013.2 hPa | 0 mm | - | - | - |
| 1777182925 | 6.11° C | 64% | 1013.5 hPa | 0 mm | - | - | - |
| 1777177550 | 8.33° C | 52% | 1013.9 hPa | 0 mm | - | - | - |
| 1777175134 | 8.89° C | 49% | 1013.7 hPa | 0 mm | - | - | - |
| 1777173926 | 9.44° C | 48% | 1013.9 hPa | 0 mm | - | - | - |
| 1777172738 | 10° C | 47% | 1013.6 hPa | 0 mm | - | - | - |
| 1777169719 | 11.67° C | 41% | 1012.2 hPa | 0 mm | - | - | - |
| 1777169155 | 12.78° C | 38% | 1012.1 hPa | 0 mm | - | - | - |
| 1777166718 | 13.33° C | 34% | 1011.1 hPa | 0 mm | - | - | - |
| 1777166155 | 13.33° C | 34% | 1010.9 hPa | 0 mm | - | - | - |
| 1777161926 | 14.44° C | 33% | 1010.1 hPa | 0 mm | - | - | - |
| 1777160738 | 14.44° C | 33% | 1009.9 hPa | 0 mm | - | - | - |
| 1777158322 | 15° C | 31% | 1009.4 hPa | 0 mm | - | - | - |
* Rain latest hour (hover to see other rain measurements)
** Current wind speed in m/s (hover to see current wind gust speed)